createdAt,value
2018-12-18T00:00:59.546Z,1019.35
2018-12-18T00:01:59.560Z,1019.37
2018-12-18T00:02:59.574Z,1019.33
2018-12-18T00:03:59.587Z,1019.34
2018-12-18T00:04:59.601Z,1019.37
2018-12-18T00:05:59.614Z,1019.34
2018-12-18T00:06:59.628Z,1019.36
2018-12-18T00:07:59.641Z,1019.34
2018-12-18T00:08:59.655Z,1019.43
2018-12-18T00:09:59.669Z,1019.45
2018-12-18T00:10:59.681Z,1019.42
2018-12-18T00:11:59.695Z,1019.45
2018-12-18T00:12:59.709Z,1019.49
2018-12-18T00:13:59.722Z,1019.53
2018-12-18T00:14:59.736Z,1019.49
2018-12-18T00:15:59.749Z,1019.54
2018-12-18T00:16:59.763Z,1019.53
2018-12-18T00:17:59.777Z,1019.52
2018-12-18T00:18:59.792Z,1019.53
2018-12-18T00:19:59.804Z,1019.54
2018-12-18T00:20:59.817Z,1019.55
2018-12-18T00:21:59.830Z,1019.53
2018-12-18T00:23:59.858Z,1019.44
2018-12-18T00:24:59.873Z,1019.47
2018-12-18T00:25:59.884Z,1019.46
2018-12-18T00:26:59.897Z,1019.46
2018-12-18T00:27:59.914Z,1019.47
2018-12-18T00:28:59.926Z,1019.48
2018-12-18T00:29:59.939Z,1019.45
2018-12-18T00:30:59.952Z,1019.5
2018-12-18T00:31:59.966Z,1019.46
2018-12-18T00:32:59.979Z,1019.47
2018-12-18T00:33:59.993Z,1019.43
2018-12-18T00:35:00.006Z,1019.41
2018-12-18T00:36:00.020Z,1019.38
2018-12-18T00:37:00.033Z,1019.38
2018-12-18T00:38:00.047Z,1019.34
2018-12-18T00:40:00.075Z,1019.35
2018-12-18T00:41:00.088Z,1019.35
2018-12-18T00:42:00.102Z,1019.37
2018-12-18T00:43:00.118Z,1019.35
2018-12-18T00:44:00.127Z,1019.33
2018-12-18T00:45:00.141Z,1019.33
2018-12-18T00:46:00.155Z,1019.31
2018-12-18T00:47:00.178Z,1019.33
2018-12-18T00:48:00.182Z,1019.33
2018-12-18T00:49:00.196Z,1019.36
2018-12-18T00:50:00.210Z,1019.35
2018-12-18T00:51:00.223Z,1019.36
2018-12-18T00:52:00.237Z,1019.37
2018-12-18T00:53:00.250Z,1019.37
2018-12-18T00:54:00.267Z,1019.37
2018-12-18T00:56:00.290Z,1019.38
2018-12-18T00:57:00.304Z,1019.38
2018-12-18T00:58:00.318Z,1019.41
2018-12-18T00:59:00.330Z,1019.39
2018-12-18T01:00:00.347Z,1019.42
2018-12-18T01:01:00.358Z,1019.34
2018-12-18T01:02:00.374Z,1019.35
2018-12-18T01:03:00.386Z,1019.36
2018-12-18T01:04:00.398Z,1019.36
2018-12-18T01:05:00.413Z,1019.37
2018-12-18T01:06:00.425Z,1019.35
2018-12-18T01:07:00.440Z,1019.37
2018-12-18T01:08:00.453Z,1019.37
2018-12-18T01:09:00.469Z,1019.37
2018-12-18T01:10:00.480Z,1019.37
2018-12-18T01:12:00.508Z,1019.41
2018-12-18T01:13:00.522Z,1019.41
2018-12-18T01:14:00.535Z,1019.48
2018-12-18T01:15:00.548Z,1019.46
2018-12-18T01:16:00.562Z,1019.48
2018-12-18T01:17:00.575Z,1019.52
2018-12-18T01:18:00.589Z,1019.48
2018-12-18T01:19:00.602Z,1019.52
2018-12-18T01:20:00.616Z,1019.53
2018-12-18T01:21:00.629Z,1019.55
2018-12-18T01:22:00.644Z,1019.56
2018-12-18T01:23:00.657Z,1019.52
2018-12-18T01:24:00.671Z,1019.56
2018-12-18T01:25:00.685Z,1019.62
2018-12-18T01:27:00.715Z,1019.68
2018-12-18T01:28:00.725Z,1019.63
2018-12-18T01:29:00.740Z,1019.67
2018-12-18T01:30:00.754Z,1019.7
2018-12-18T01:31:00.767Z,1019.69
2018-12-18T01:32:00.780Z,1019.71
2018-12-18T01:33:00.794Z,1019.7
2018-12-18T01:34:00.808Z,1019.7
2018-12-18T01:35:00.821Z,1019.7
2018-12-18T01:36:00.835Z,1019.68
2018-12-18T01:37:00.849Z,1019.69
2018-12-18T01:38:00.862Z,1019.7
2018-12-18T01:39:00.875Z,1019.68
2018-12-18T01:40:00.889Z,1019.67
2018-12-18T01:41:00.903Z,1019.66
2018-12-18T01:42:00.917Z,1019.67
2018-12-18T01:43:00.930Z,1019.69
2018-12-18T01:44:00.944Z,1019.69
2018-12-18T01:45:00.957Z,1019.67
2018-12-18T01:46:00.971Z,1019.68
2018-12-18T01:47:00.985Z,1019.68
2018-12-18T01:48:00.998Z,1019.73
2018-12-18T01:49:01.012Z,1019.71
2018-12-18T01:50:01.025Z,1019.74
2018-12-18T01:51:01.040Z,1019.72
2018-12-18T01:52:01.053Z,1019.75
2018-12-18T01:53:01.067Z,1019.8
2018-12-18T01:54:01.081Z,1019.76
2018-12-18T01:55:01.094Z,1019.74
2018-12-18T01:56:01.108Z,1019.79
2018-12-18T01:57:01.123Z,1019.76
2018-12-18T01:59:01.148Z,1019.79
2018-12-18T02:00:01.162Z,1019.77
2018-12-18T02:01:01.176Z,1019.78
2018-12-18T02:02:01.192Z,1019.81
2018-12-18T02:03:01.203Z,1019.78
2018-12-18T02:04:05.833Z,1019.75
2018-12-18T02:05:01.231Z,1019.7
2018-12-18T02:06:01.246Z,1019.74
2018-12-18T02:07:01.260Z,1019.72
2018-12-18T02:08:01.278Z,1019.72
2018-12-18T02:09:01.286Z,1019.7
2018-12-18T02:10:01.301Z,1019.7
2018-12-18T02:11:01.314Z,1019.72
2018-12-18T02:12:01.327Z,1019.68
2018-12-18T02:13:01.343Z,1019.75
2018-12-18T02:15:01.370Z,1019.73
2018-12-18T02:16:01.382Z,1019.71
2018-12-18T02:17:01.395Z,1019.76
2018-12-18T02:18:01.412Z,1019.71
2018-12-18T02:19:01.422Z,1019.75
2018-12-18T02:20:01.436Z,1019.75
2018-12-18T02:21:01.450Z,1019.71
2018-12-18T02:22:01.464Z,1019.76
2018-12-18T02:23:01.478Z,1019.74
2018-12-18T02:24:01.491Z,1019.72
2018-12-18T02:25:01.506Z,1019.75
2018-12-18T02:26:01.519Z,1019.7
2018-12-18T02:27:01.532Z,1019.71
2018-12-18T02:28:01.546Z,1019.73
2018-12-18T02:29:01.565Z,1019.71
2018-12-18T02:31:01.587Z,1019.72
2018-12-18T02:32:01.601Z,1019.74
2018-12-18T02:33:01.614Z,1019.73
2018-12-18T02:34:01.628Z,1019.75
2018-12-18T02:35:01.645Z,1019.76
2018-12-18T02:36:01.660Z,1019.76
2018-12-18T02:37:01.670Z,1019.75
2018-12-18T02:38:01.683Z,1019.75
2018-12-18T02:39:01.697Z,1019.78
2018-12-18T02:40:01.712Z,1019.76
2018-12-18T02:41:01.723Z,1019.75
2018-12-18T02:42:01.739Z,1019.78
2018-12-18T02:43:01.771Z,1019.72
2018-12-18T02:44:01.766Z,1019.73
2018-12-18T02:45:01.779Z,1019.72
2018-12-18T02:47:01.807Z,1019.67
2018-12-18T02:48:01.825Z,1019.65
2018-12-18T02:49:01.834Z,1019.62
2018-12-18T02:50:01.848Z,1019.59
2018-12-18T02:51:01.862Z,1019.58
2018-12-18T02:52:01.875Z,1019.59
2018-12-18T02:53:01.889Z,1019.58
2018-12-18T02:54:01.908Z,1019.54
2018-12-18T02:55:01.920Z,1019.59
2018-12-18T02:56:01.931Z,1019.6
2018-12-18T02:57:01.946Z,1019.61
2018-12-18T02:58:01.959Z,1019.68
2018-12-18T02:59:01.973Z,1019.66
2018-12-18T03:00:01.986Z,1019.66
2018-12-18T03:02:02.014Z,1019.65
2018-12-18T03:03:02.027Z,1019.68
2018-12-18T03:04:02.043Z,1019.68
2018-12-18T03:05:02.063Z,1019.63
2018-12-18T03:06:02.070Z,1019.6
2018-12-18T03:07:02.087Z,1019.6
2018-12-18T03:08:02.096Z,1019.57
2018-12-18T03:09:02.111Z,1019.56
2018-12-18T03:10:02.123Z,1019.58
2018-12-18T03:11:02.137Z,1019.62
2018-12-18T03:12:02.152Z,1019.61
2018-12-18T03:13:02.166Z,1019.58
2018-12-18T03:14:02.179Z,1019.59
2018-12-18T03:15:02.192Z,1019.66
2018-12-18T03:16:02.209Z,1019.7
2018-12-18T03:17:02.220Z,1019.71
2018-12-18T03:18:02.234Z,1019.76
2018-12-18T03:19:02.248Z,1019.71
2018-12-18T03:20:02.262Z,1019.76
2018-12-18T03:21:02.290Z,1019.75
2018-12-18T03:22:02.290Z,1019.8
2018-12-18T03:23:02.302Z,1019.79
2018-12-18T03:24:02.317Z,1019.82
2018-12-18T03:25:02.331Z,1019.84
2018-12-18T03:26:02.346Z,1019.82
2018-12-18T03:27:02.359Z,1019.84
2018-12-18T03:28:02.373Z,1019.83
2018-12-18T03:29:02.385Z,1019.82
2018-12-18T03:30:02.406Z,1019.85
2018-12-18T03:31:02.418Z,1019.85
2018-12-18T03:32:02.436Z,1019.86
2018-12-18T03:34:02.454Z,1019.86
2018-12-18T03:35:02.471Z,1019.81
2018-12-18T03:36:02.481Z,1019.81
2018-12-18T03:37:02.495Z,1019.85
2018-12-18T03:38:02.510Z,1019.77
2018-12-18T03:39:02.524Z,1019.77
2018-12-18T03:40:02.539Z,1019.75
2018-12-18T03:41:02.551Z,1019.74
2018-12-18T03:42:02.564Z,1019.73
2018-12-18T03:43:02.577Z,1019.69
2018-12-18T03:44:02.592Z,1019.74
2018-12-18T03:45:02.605Z,1019.73
2018-12-18T03:46:02.621Z,1019.73
2018-12-18T03:47:02.633Z,1019.74
2018-12-18T03:48:02.648Z,1019.75
2018-12-18T03:50:02.691Z,1019.73
2018-12-18T03:51:02.689Z,1019.78
2018-12-18T03:52:02.704Z,1019.69
2018-12-18T03:53:02.717Z,1019.72
2018-12-18T03:54:02.730Z,1019.66
2018-12-18T03:55:02.761Z,1019.7
2018-12-18T03:56:02.758Z,1019.7
2018-12-18T03:57:02.772Z,1019.71
2018-12-18T03:58:02.786Z,1019.74
2018-12-18T03:59:02.807Z,1019.74
2018-12-18T04:00:02.814Z,1019.74
2018-12-18T04:01:02.827Z,1019.77
2018-12-18T04:02:02.840Z,1019.78
2018-12-18T04:03:02.854Z,1019.79
2018-12-18T04:04:02.868Z,1019.83
2018-12-18T04:06:02.896Z,1019.82
2018-12-18T04:07:02.911Z,1019.84
2018-12-18T04:08:02.925Z,1019.79
2018-12-18T04:09:02.938Z,1019.79
2018-12-18T04:10:02.951Z,1019.8
2018-12-18T04:11:02.965Z,1019.83
2018-12-18T04:12:02.980Z,1019.8
2018-12-18T04:13:02.993Z,1019.76
2018-12-18T04:14:03.008Z,1019.78
2018-12-18T04:15:03.027Z,1019.78
2018-12-18T04:16:03.035Z,1019.74
2018-12-18T04:17:03.048Z,1019.75
2018-12-18T04:18:03.062Z,1019.76
2018-12-18T04:19:03.076Z,1019.74
2018-12-18T04:20:03.090Z,1019.73
2018-12-18T04:22:03.118Z,1019.7
2018-12-18T04:23:03.132Z,1019.75
2018-12-18T04:24:03.145Z,1019.72
2018-12-18T04:25:03.160Z,1019.68
2018-12-18T04:26:03.173Z,1019.71
2018-12-18T04:27:03.187Z,1019.72
2018-12-18T04:28:03.202Z,1019.72
2018-12-18T04:29:03.215Z,1019.7
2018-12-18T04:30:03.229Z,1019.7
2018-12-18T04:31:03.242Z,1019.69
2018-12-18T04:32:03.256Z,1019.71
2018-12-18T04:33:03.271Z,1019.69
2018-12-18T04:34:03.284Z,1019.64
2018-12-18T04:35:03.303Z,1019.67
2018-12-18T04:37:03.326Z,1019.66
2018-12-18T04:38:03.340Z,1019.68
2018-12-18T04:39:03.361Z,1019.71
2018-12-18T04:40:03.374Z,1019.66
2018-12-18T04:41:03.382Z,1019.72
2018-12-18T04:42:03.395Z,1019.71
2018-12-18T04:43:03.412Z,1019.73
2018-12-18T04:44:03.423Z,1019.7
2018-12-18T04:45:03.438Z,1019.74
2018-12-18T04:46:03.451Z,1019.77
2018-12-18T04:47:03.466Z,1019.78
2018-12-18T04:48:03.485Z,1019.79
2018-12-18T04:49:03.500Z,1019.76
2018-12-18T04:50:03.506Z,1019.78
2018-12-18T04:51:03.521Z,1019.75
2018-12-18T04:52:03.537Z,1019.74
2018-12-18T04:53:03.548Z,1019.77
2018-12-18T04:54:03.562Z,1019.77
2018-12-18T04:55:03.576Z,1019.76
2018-12-18T04:56:03.590Z,1019.75
2018-12-18T04:57:03.603Z,1019.76
2018-12-18T04:58:03.619Z,1019.78
2018-12-18T04:59:03.632Z,1019.72
2018-12-18T05:00:03.646Z,1019.73
2018-12-18T05:01:03.662Z,1019.72
2018-12-18T05:02:03.680Z,1019.72
2018-12-18T05:03:03.688Z,1019.74
2018-12-18T05:04:03.951Z,1019.69
2018-12-18T05:05:03.716Z,1019.68
2018-12-18T05:06:03.730Z,1019.69
2018-12-18T05:07:03.746Z,1019.7
2018-12-18T05:09:03.772Z,1019.72
2018-12-18T05:10:03.786Z,1019.71
2018-12-18T05:11:03.798Z,1019.66
2018-12-18T05:12:03.813Z,1019.67
2018-12-18T05:13:03.829Z,1019.7
2018-12-18T05:14:03.842Z,1019.68
2018-12-18T05:15:03.855Z,1019.71
2018-12-18T05:16:03.870Z,1019.71
2018-12-18T05:17:03.883Z,1019.67
2018-12-18T05:18:03.896Z,1019.77
2018-12-18T05:19:03.910Z,1019.71
2018-12-18T05:20:03.929Z,1019.75
2018-12-18T05:21:03.939Z,1019.73
2018-12-18T05:22:03.957Z,1019.76
2018-12-18T05:23:03.968Z,1019.71
2018-12-18T05:25:03.995Z,1019.68
2018-12-18T05:26:04.009Z,1019.72
2018-12-18T05:27:04.025Z,1019.76
2018-12-18T05:28:04.037Z,1019.77
2018-12-18T05:29:04.051Z,1019.77
2018-12-18T05:30:04.064Z,1019.76
2018-12-18T05:31:04.080Z,1019.73
2018-12-18T05:32:04.093Z,1019.75
2018-12-18T05:33:04.107Z,1019.73
2018-12-18T05:34:04.120Z,1019.75
2018-12-18T05:35:04.135Z,1019.75
2018-12-18T05:36:04.150Z,1019.79
2018-12-18T05:37:04.162Z,1019.79
2018-12-18T05:38:04.177Z,1019.83
2018-12-18T05:39:04.191Z,1019.81
2018-12-18T05:41:04.219Z,1019.87
2018-12-18T05:42:04.233Z,1019.88
2018-12-18T05:43:04.247Z,1019.88
2018-12-18T05:44:04.265Z,1019.89
2018-12-18T05:45:04.276Z,1019.89
2018-12-18T05:46:04.289Z,1019.88
2018-12-18T05:47:04.303Z,1019.88
2018-12-18T05:48:04.317Z,1019.93
2018-12-18T05:49:04.334Z,1019.94
2018-12-18T05:50:04.346Z,1019.99
2018-12-18T05:51:04.358Z,1020.02
2018-12-18T05:52:04.373Z,1020.01
2018-12-18T05:53:04.388Z,1020.02
2018-12-18T05:54:04.402Z,1020.04
2018-12-18T05:55:04.415Z,1020.03
2018-12-18T05:57:04.445Z,1020.06
2018-12-18T05:58:04.459Z,1020.05
2018-12-18T05:59:04.473Z,1020.05
2018-12-18T06:00:04.486Z,1020.06
2018-12-18T06:01:04.500Z,1020.1
2018-12-18T06:02:04.514Z,1020.14
2018-12-18T06:03:04.529Z,1020.15
2018-12-18T06:04:04.542Z,1020.16
2018-12-18T06:05:04.557Z,1020.12
2018-12-18T06:06:04.879Z,1020.18
2018-12-18T06:07:04.585Z,1020.11
2018-12-18T06:08:04.600Z,1020.14
2018-12-18T06:09:04.614Z,1020.11
2018-12-18T06:10:04.629Z,1020.17
2018-12-18T06:12:04.657Z,1020.14
2018-12-18T06:13:04.671Z,1020.16
2018-12-18T06:14:04.685Z,1020.15
2018-12-18T06:15:04.699Z,1020.11
2018-12-18T06:16:04.714Z,1020.14
2018-12-18T06:17:04.727Z,1020.18
2018-12-18T06:18:04.743Z,1020.19
2018-12-18T06:19:04.757Z,1020.17
2018-12-18T06:20:04.770Z,1020.18
2018-12-18T06:21:04.784Z,1020.21
2018-12-18T06:22:04.799Z,1020.22
2018-12-18T06:23:04.814Z,1020.21
2018-12-18T06:24:04.827Z,1020.28
2018-12-18T06:25:04.858Z,1020.27
2018-12-18T06:26:04.856Z,1020.26
2018-12-18T06:27:04.873Z,1020.27
2018-12-18T06:28:04.884Z,1020.22
2018-12-18T06:29:04.899Z,1020.27
2018-12-18T06:30:04.913Z,1020.21
2018-12-18T06:31:04.927Z,1020.29
2018-12-18T06:32:04.941Z,1020.27
2018-12-18T06:33:04.956Z,1020.23
2018-12-18T06:34:04.971Z,1020.27
2018-12-18T06:35:10.154Z,1020.28
2018-12-18T06:36:05.000Z,1020.31
2018-12-18T06:37:05.013Z,1020.32
2018-12-18T06:38:05.028Z,1020.33
2018-12-18T06:39:05.041Z,1020.31
2018-12-18T06:40:05.057Z,1020.33
2018-12-18T06:41:05.070Z,1020.33
2018-12-18T06:42:05.084Z,1020.32
2018-12-18T06:44:05.117Z,1020.31
2018-12-18T06:45:05.128Z,1020.32
2018-12-18T06:46:05.141Z,1020.32
2018-12-18T06:47:05.155Z,1020.34
2018-12-18T06:48:05.170Z,1020.32
2018-12-18T06:49:05.185Z,1020.32
2018-12-18T06:50:05.198Z,1020.28
2018-12-18T06:51:05.214Z,1020.31
2018-12-18T06:52:05.230Z,1020.32
2018-12-18T06:53:05.242Z,1020.3
2018-12-18T06:54:05.257Z,1020.29
2018-12-18T06:55:05.271Z,1020.3
2018-12-18T06:56:05.287Z,1020.29
2018-12-18T06:57:05.298Z,1020.29
2018-12-18T06:58:05.315Z,1020.33
2018-12-18T07:00:05.342Z,1020.34
2018-12-18T07:01:05.356Z,1020.33
2018-12-18T07:02:05.370Z,1020.35
2018-12-18T07:03:05.385Z,1020.35
2018-12-18T07:04:05.399Z,1020.42
2018-12-18T07:05:05.413Z,1020.41
2018-12-18T07:06:05.428Z,1020.43
2018-12-18T07:07:05.442Z,1020.46
2018-12-18T07:08:05.456Z,1020.46
2018-12-18T07:09:05.470Z,1020.45
2018-12-18T07:10:05.489Z,1020.48
2018-12-18T07:11:05.500Z,1020.46
2018-12-18T07:12:05.513Z,1020.5
2018-12-18T07:13:05.528Z,1020.45
2018-12-18T07:14:05.543Z,1020.45
2018-12-18T07:16:05.571Z,1020.4
2018-12-18T07:17:05.586Z,1020.44
2018-12-18T07:18:05.600Z,1020.45
2018-12-18T07:19:05.614Z,1020.41
2018-12-18T07:20:05.628Z,1020.44
2018-12-18T07:21:05.643Z,1020.44
2018-12-18T07:22:05.660Z,1020.45
2018-12-18T07:23:05.671Z,1020.44
2018-12-18T07:24:05.686Z,1020.49
2018-12-18T07:25:05.701Z,1020.51
2018-12-18T07:26:05.715Z,1020.52
2018-12-18T07:27:05.729Z,1020.54
2018-12-18T07:28:05.744Z,1020.53
2018-12-18T07:29:05.759Z,1020.56
2018-12-18T07:30:05.775Z,1020.52
2018-12-18T07:32:05.802Z,1020.52
2018-12-18T07:33:05.816Z,1020.52
2018-12-18T07:34:05.829Z,1020.52
2018-12-18T07:35:05.844Z,1020.49
2018-12-18T07:36:05.860Z,1020.52
2018-12-18T07:37:05.873Z,1020.51
2018-12-18T07:38:05.901Z,1020.51
2018-12-18T07:39:05.902Z,1020.53
2018-12-18T07:40:05.917Z,1020.54
2018-12-18T07:41:05.930Z,1020.53
2018-12-18T07:42:05.948Z,1020.53
2018-12-18T07:43:05.961Z,1020.6
2018-12-18T07:44:05.975Z,1020.61
2018-12-18T07:45:05.989Z,1020.65
2018-12-18T07:47:06.019Z,1020.66
2018-12-18T07:48:06.032Z,1020.63
2018-12-18T07:49:06.048Z,1020.67
2018-12-18T07:50:06.062Z,1020.64
2018-12-18T07:51:06.077Z,1020.68
2018-12-18T07:52:06.091Z,1020.66
2018-12-18T07:53:06.105Z,1020.76
2018-12-18T07:54:06.120Z,1020.74
2018-12-18T07:55:06.134Z,1020.79
2018-12-18T07:56:06.148Z,1020.82
2018-12-18T07:57:06.164Z,1020.87
2018-12-18T07:58:06.178Z,1020.87
2018-12-18T07:59:06.192Z,1020.9
2018-12-18T08:00:06.212Z,1020.92
2018-12-18T08:01:06.222Z,1020.91
2018-12-18T08:02:06.238Z,1020.91
2018-12-18T08:03:06.250Z,1020.94
2018-12-18T08:04:06.265Z,1020.93
2018-12-18T08:05:06.280Z,1020.93
2018-12-18T08:06:06.293Z,1020.93
2018-12-18T08:07:06.309Z,1020.91
2018-12-18T08:08:06.323Z,1020.94
2018-12-18T08:09:06.338Z,1020.95
2018-12-18T08:10:06.352Z,1020.94
2018-12-18T08:11:06.372Z,1020.95
2018-12-18T08:12:06.382Z,1020.93
2018-12-18T08:13:06.396Z,1020.95
2018-12-18T08:14:06.410Z,1020.96
2018-12-18T08:15:06.425Z,1020.96
2018-12-18T08:16:06.440Z,1020.96
2018-12-18T08:17:06.454Z,1020.95
2018-12-18T08:19:06.484Z,1020.99
2018-12-18T08:20:06.499Z,1020.95
2018-12-18T08:21:06.513Z,1020.93
2018-12-18T08:22:06.527Z,1020.96
2018-12-18T08:23:06.542Z,1020.92
2018-12-18T08:24:06.557Z,1020.94
2018-12-18T08:25:06.571Z,1020.89
2018-12-18T08:26:06.587Z,1020.93
2018-12-18T08:27:06.600Z,1020.88
2018-12-18T08:28:06.615Z,1020.88
2018-12-18T08:29:06.630Z,1020.91
2018-12-18T08:30:06.646Z,1020.95
2018-12-18T08:31:06.659Z,1020.93
2018-12-18T08:32:06.673Z,1020.9
2018-12-18T08:33:06.689Z,1020.93
2018-12-18T08:35:06.721Z,1020.95
2018-12-18T08:36:06.733Z,1020.94
2018-12-18T08:37:06.748Z,1020.95
2018-12-18T08:38:06.764Z,1020.94
2018-12-18T08:39:06.777Z,1020.92
2018-12-18T08:40:06.796Z,1020.94
2018-12-18T08:41:06.807Z,1020.95
2018-12-18T08:42:06.822Z,1020.96
2018-12-18T08:43:06.836Z,1020.92
2018-12-18T08:44:06.851Z,1020.94
2018-12-18T08:45:06.868Z,1020.92
2018-12-18T08:46:10.115Z,1020.92
2018-12-18T08:47:06.895Z,1020.9
2018-12-18T08:48:06.911Z,1020.94
2018-12-18T08:49:06.926Z,1020.94
2018-12-18T08:51:06.955Z,1021.01
2018-12-18T08:52:06.970Z,1020.98
2018-12-18T08:53:06.986Z,1021.02
2018-12-18T08:54:06.999Z,1021.04
2018-12-18T08:55:07.014Z,1021.04
2018-12-18T08:56:07.031Z,1020.99
2018-12-18T08:57:07.044Z,1021.02
2018-12-18T08:58:07.058Z,1021.04
2018-12-18T08:59:07.124Z,1021.06
2018-12-18T09:00:07.089Z,1021.08
2018-12-18T09:01:07.103Z,1021.07
2018-12-18T09:02:07.118Z,1021.08
2018-12-18T09:03:07.133Z,1021.1
2018-12-18T09:04:07.148Z,1021.06
2018-12-18T09:05:07.162Z,1021.03
2018-12-18T09:07:07.193Z,1021.06
2018-12-18T09:08:07.208Z,1021.02
2018-12-18T09:09:07.223Z,1021.09
2018-12-18T09:10:07.237Z,1021
2018-12-18T09:11:07.253Z,1021.04
2018-12-18T09:12:07.267Z,1021.05
2018-12-18T09:13:07.282Z,1021.06
2018-12-18T09:14:07.298Z,1021.08
2018-12-18T09:15:07.313Z,1021.1
2018-12-18T09:16:07.329Z,1021.07
2018-12-18T09:17:07.342Z,1021.01
2018-12-18T09:18:07.360Z,1021.08
2018-12-18T09:19:07.373Z,1021.08
2018-12-18T09:20:07.389Z,1021.1
2018-12-18T09:22:07.419Z,1021.08
2018-12-18T09:23:07.433Z,1021.06
2018-12-18T09:24:07.453Z,1021.09
2018-12-18T09:25:07.465Z,1021.06
2018-12-18T09:26:07.479Z,1021.12
2018-12-18T09:27:07.493Z,1021.1
2018-12-18T09:28:07.509Z,1021.08
2018-12-18T09:29:07.524Z,1021.07
2018-12-18T09:30:07.539Z,1021.1
2018-12-18T09:31:07.555Z,1021.1
2018-12-18T09:32:07.569Z,1021.06
2018-12-18T09:33:07.584Z,1021.05
2018-12-18T09:34:07.599Z,1021.01
2018-12-18T09:35:07.615Z,1021
2018-12-18T09:36:07.630Z,1021.01
2018-12-18T09:37:07.646Z,1021.05
2018-12-18T09:38:07.660Z,1021.05
2018-12-18T09:39:07.675Z,1021.03
2018-12-18T09:40:07.693Z,1021.06
2018-12-18T09:41:07.705Z,1021.06
2018-12-18T09:42:07.821Z,1021.08
2018-12-18T09:43:07.737Z,1020.98
2018-12-18T09:44:07.758Z,1021
2018-12-18T09:45:07.767Z,1020.96
2018-12-18T09:46:07.784Z,1020.97
2018-12-18T09:47:07.799Z,1021.01
2018-12-18T09:48:07.815Z,1021.03
2018-12-18T09:49:07.829Z,1020.99
2018-12-18T09:50:07.845Z,1021
2018-12-18T09:51:07.861Z,1021.02
2018-12-18T09:52:07.876Z,1021
2018-12-18T09:54:07.907Z,1021.05
2018-12-18T09:55:08.186Z,1021.02
2018-12-18T09:56:07.938Z,1021.06
2018-12-18T09:57:07.955Z,1021.03
2018-12-18T09:58:07.970Z,1021.01
2018-12-18T09:59:07.985Z,1021.05
2018-12-18T10:00:08.000Z,1021.06
2018-12-18T10:01:08.016Z,1021.11
2018-12-18T10:02:08.032Z,1020.99
2018-12-18T10:03:08.047Z,1021.02
2018-12-18T10:04:08.068Z,1021.07
2018-12-18T10:05:08.079Z,1021.01
2018-12-18T10:06:08.097Z,1021.05
2018-12-18T10:07:08.110Z,1021.04
2018-12-18T10:08:08.126Z,1021.08
2018-12-18T10:10:08.159Z,1021.01
2018-12-18T10:11:08.173Z,1021.04
2018-12-18T10:12:08.189Z,1021.03
2018-12-18T10:13:08.206Z,1020.99
2018-12-18T10:14:08.221Z,1021
2018-12-18T10:15:08.236Z,1021.02
2018-12-18T10:16:08.253Z,1020.99
2018-12-18T10:17:08.269Z,1021.02
2018-12-18T10:18:08.284Z,1021
2018-12-18T10:19:08.301Z,1020.96
2018-12-18T10:20:08.316Z,1020.96
2018-12-18T10:21:08.332Z,1021
2018-12-18T10:22:08.348Z,1020.99
2018-12-18T10:23:08.364Z,1021.04
2018-12-18T10:24:08.436Z,1021.02
2018-12-18T10:26:08.412Z,1021
2018-12-18T10:27:08.427Z,1020.99
2018-12-18T10:28:08.444Z,1021.02
2018-12-18T10:29:08.459Z,1021.01
2018-12-18T10:30:08.476Z,1021.02
2018-12-18T10:31:08.491Z,1021.02
2018-12-18T10:32:08.508Z,1020.95
2018-12-18T10:33:08.526Z,1021.02
2018-12-18T10:34:08.539Z,1021
2018-12-18T10:35:08.555Z,1020.99
2018-12-18T10:36:08.571Z,1021.03
2018-12-18T10:37:08.587Z,1021.01
2018-12-18T10:38:08.603Z,1021.02
2018-12-18T10:39:08.620Z,1021.01
2018-12-18T10:40:08.635Z,1020.98
2018-12-18T10:42:08.668Z,1020.92
2018-12-18T10:43:08.684Z,1020.91
2018-12-18T10:44:08.700Z,1020.94
2018-12-18T10:45:13.662Z,1020.95
2018-12-18T10:46:08.734Z,1020.93
2018-12-18T10:47:08.748Z,1020.91
2018-12-18T10:48:08.765Z,1020.92
2018-12-18T10:49:08.784Z,1020.91
2018-12-18T10:50:08.797Z,1020.89
2018-12-18T10:51:08.813Z,1020.91
2018-12-18T10:52:08.837Z,1020.88
2018-12-18T10:53:08.846Z,1020.89
2018-12-18T10:54:08.862Z,1020.87
2018-12-18T10:55:08.879Z,1020.87
2018-12-18T10:57:08.915Z,1020.84
2018-12-18T10:58:08.928Z,1020.81
2018-12-18T10:59:08.948Z,1020.78
2018-12-18T11:00:08.960Z,1020.76
2018-12-18T11:01:08.977Z,1020.8
2018-12-18T11:02:08.996Z,1020.8
2018-12-18T11:03:09.010Z,1020.81
2018-12-18T11:04:09.026Z,1020.81
2018-12-18T11:05:09.042Z,1020.81
2018-12-18T11:06:09.956Z,1020.79
2018-12-18T11:07:09.077Z,1020.76
2018-12-18T11:08:09.092Z,1020.75
2018-12-18T11:09:09.107Z,1020.75
2018-12-18T11:10:09.126Z,1020.7
2018-12-18T11:11:09.141Z,1020.7
2018-12-18T11:12:09.157Z,1020.75
2018-12-18T11:13:09.272Z,1020.77
2018-12-18T11:14:09.191Z,1020.76
2018-12-18T11:15:09.205Z,1020.8
2018-12-18T11:16:09.221Z,1020.77
2018-12-18T11:17:09.238Z,1020.76
2018-12-18T11:18:09.255Z,1020.76
2018-12-18T11:19:09.271Z,1020.76
2018-12-18T11:20:09.287Z,1020.76
2018-12-18T11:21:09.308Z,1020.75
2018-12-18T11:22:09.321Z,1020.73
2018-12-18T11:23:09.338Z,1020.71
2018-12-18T11:24:09.353Z,1020.67
2018-12-18T11:25:09.370Z,1020.69
2018-12-18T11:26:09.386Z,1020.67
2018-12-18T11:27:09.409Z,1020.68
2018-12-18T11:29:09.435Z,1020.65
2018-12-18T11:30:09.452Z,1020.66
2018-12-18T11:31:09.469Z,1020.66
2018-12-18T11:32:09.625Z,1020.62
2018-12-18T11:33:09.501Z,1020.6
2018-12-18T11:34:09.518Z,1020.6
2018-12-18T11:35:09.534Z,1020.51
2018-12-18T11:36:09.550Z,1020.52
2018-12-18T11:37:09.585Z,1020.49
2018-12-18T11:38:09.585Z,1020.5
2018-12-18T11:39:09.600Z,1020.51
2018-12-18T11:40:09.667Z,1020.48
2018-12-18T11:41:09.633Z,1020.48
2018-12-18T11:42:09.650Z,1020.48
2018-12-18T11:43:09.666Z,1020.45
2018-12-18T11:45:09.700Z,1020.36
2018-12-18T11:46:09.719Z,1020.38
2018-12-18T11:47:09.733Z,1020.35
2018-12-18T11:48:09.750Z,1020.37
2018-12-18T11:49:09.765Z,1020.37
2018-12-18T11:50:09.782Z,1020.39
2018-12-18T11:51:09.800Z,1020.39
2018-12-18T11:52:09.821Z,1020.34
2018-12-18T11:53:09.833Z,1020.32
2018-12-18T11:54:09.849Z,1020.28
2018-12-18T11:55:09.866Z,1020.29
2018-12-18T11:56:09.883Z,1020.23
2018-12-18T11:57:10.000Z,1020.18
2018-12-18T11:58:09.924Z,1020.18
2018-12-18T11:59:09.933Z,1020.14
2018-12-18T12:01:09.967Z,1020.16
2018-12-18T12:02:09.985Z,1020.14
2018-12-18T12:03:10.000Z,1020.16
2018-12-18T12:04:10.017Z,1020.14
2018-12-18T12:05:10.035Z,1020.12
2018-12-18T12:06:10.051Z,1020.16
2018-12-18T12:07:10.068Z,1020.13
2018-12-18T12:08:10.085Z,1020.1
2018-12-18T12:09:10.103Z,1020.11
2018-12-18T12:10:10.120Z,1020.12
2018-12-18T12:11:10.138Z,1020.1
2018-12-18T12:12:10.152Z,1020.1
2018-12-18T12:13:10.170Z,1020.12
2018-12-18T12:14:10.187Z,1020.08
2018-12-18T12:15:10.205Z,1020.05
2018-12-18T12:17:10.238Z,1020.13
2018-12-18T12:18:10.255Z,1020.15
2018-12-18T12:19:10.272Z,1020.13
2018-12-18T12:20:10.288Z,1020.11
2018-12-18T12:21:10.306Z,1020.14
2018-12-18T12:22:10.322Z,1020.15
2018-12-18T12:23:10.339Z,1020.13
2018-12-18T12:24:10.356Z,1020.19
2018-12-18T12:25:10.379Z,1020.2
2018-12-18T12:26:10.390Z,1020.21
2018-12-18T12:27:10.407Z,1020.16
2018-12-18T12:28:10.426Z,1020.17
2018-12-18T12:29:10.443Z,1020.16
2018-12-18T12:30:10.460Z,1020.17
2018-12-18T12:32:10.494Z,1020.12
2018-12-18T12:33:10.515Z,1020.08
2018-12-18T12:34:10.527Z,1020.08
2018-12-18T12:35:10.546Z,1020.03
2018-12-18T12:36:10.566Z,1020.05
2018-12-18T12:37:10.579Z,1020.01
2018-12-18T12:38:10.596Z,1019.99
2018-12-18T12:39:10.648Z,1019.98
2018-12-18T12:40:10.630Z,1019.93
2018-12-18T12:41:10.648Z,1019.96
2018-12-18T12:42:10.668Z,1019.97
2018-12-18T12:43:10.682Z,1019.98
2018-12-18T12:44:10.697Z,1019.97
2018-12-18T12:45:10.714Z,1019.99
2018-12-18T12:46:10.734Z,1019.99
2018-12-18T12:47:10.749Z,1020.04
2018-12-18T12:48:10.765Z,1020.03
2018-12-18T12:49:10.782Z,1020.04